sensor_id;sensor_type;location;lat;lon;timestamp;temperature;humidity
21348;DHT22;66030;53.582;9.746;2024-03-08T00:00:11;19.00;61.10
21348;DHT22;66030;53.582;9.746;2024-03-08T00:02:44;19.00;61.20
21348;DHT22;66030;53.582;9.746;2024-03-08T00:05:13;18.90;61.10
21348;DHT22;66030;53.582;9.746;2024-03-08T00:07:42;18.90;61.20
21348;DHT22;66030;53.582;9.746;2024-03-08T00:10:12;18.90;61.20
21348;DHT22;66030;53.582;9.746;2024-03-08T00:12:42;18.90;61.20
21348;DHT22;66030;53.582;9.746;2024-03-08T00:15:11;18.90;61.30
21348;DHT22;66030;53.582;9.746;2024-03-08T00:17:44;18.90;61.40
21348;DHT22;66030;53.582;9.746;2024-03-08T00:20:12;18.90;61.40
21348;DHT22;66030;53.582;9.746;2024-03-08T00:22:41;18.80;61.40
21348;DHT22;66030;53.582;9.746;2024-03-08T00:25:10;18.80;61.40
21348;DHT22;66030;53.582;9.746;2024-03-08T00:27:38;18.90;61.30
21348;DHT22;66030;53.582;9.746;2024-03-08T00:30:07;18.80;61.30
21348;DHT22;66030;53.582;9.746;2024-03-08T00:32:35;18.80;61.20
21348;DHT22;66030;53.582;9.746;2024-03-08T00:35:06;18.80;61.20
21348;DHT22;66030;53.582;9.746;2024-03-08T00:37:34;18.80;61.20
21348;DHT22;66030;53.582;9.746;2024-03-08T00:40:03;18.80;61.20
21348;DHT22;66030;53.582;9.746;2024-03-08T00:42:34;18.80;61.30
21348;DHT22;66030;53.582;9.746;2024-03-08T00:45:01;18.80;61.30
21348;DHT22;66030;53.582;9.746;2024-03-08T00:47:29;18.70;61.30
21348;DHT22;66030;53.582;9.746;2024-03-08T00:49:57;18.70;61.40
21348;DHT22;66030;53.582;9.746;2024-03-08T00:52:27;18.70;61.40
21348;DHT22;66030;53.582;9.746;2024-03-08T00:54:55;18.70;61.40
21348;DHT22;66030;53.582;9.746;2024-03-08T00:57:23;18.70;61.40
21348;DHT22;66030;53.582;9.746;2024-03-08T00:59:51;18.70;61.40
21348;DHT22;66030;53.582;9.746;2024-03-08T01:02:19;18.70;61.30
21348;DHT22;66030;53.582;9.746;2024-03-08T01:04:47;18.70;61.30
21348;DHT22;66030;53.582;9.746;2024-03-08T01:07:15;18.70;61.30
21348;DHT22;66030;53.582;9.746;2024-03-08T01:09:44;18.70;61.10
21348;DHT22;66030;53.582;9.746;2024-03-08T01:12:12;18.70;61.20
21348;DHT22;66030;53.582;9.746;2024-03-08T01:14:41;18.60;61.20
21348;DHT22;66030;53.582;9.746;2024-03-08T01:17:09;18.60;61.30
21348;DHT22;66030;53.582;9.746;2024-03-08T01:19:37;18.60;61.20
21348;DHT22;66030;53.582;9.746;2024-03-08T01:22:05;18.60;61.40
21348;DHT22;66030;53.582;9.746;2024-03-08T01:24:34;18.60;61.20
21348;DHT22;66030;53.582;9.746;2024-03-08T01:27:03;18.60;61.30
21348;DHT22;66030;53.582;9.746;2024-03-08T01:29:31;18.60;61.40
21348;DHT22;66030;53.582;9.746;2024-03-08T01:31:59;18.60;61.30
21348;DHT22;66030;53.582;9.746;2024-03-08T01:34:28;18.60;61.30
21348;DHT22;66030;53.582;9.746;2024-03-08T01:36:56;18.60;61.50
21348;DHT22;66030;53.582;9.746;2024-03-08T01:39:24;18.60;61.30
21348;DHT22;66030;53.582;9.746;2024-03-08T01:41:53;18.60;61.30
21348;DHT22;66030;53.582;9.746;2024-03-08T01:44:22;18.60;61.40
21348;DHT22;66030;53.582;9.746;2024-03-08T01:46:52;18.60;61.30
21348;DHT22;66030;53.582;9.746;2024-03-08T01:49:21;18.50;61.20
21348;DHT22;66030;53.582;9.746;2024-03-08T01:51:50;18.50;61.10
21348;DHT22;66030;53.582;9.746;2024-03-08T01:54:19;18.50;61.20
21348;DHT22;66030;53.582;9.746;2024-03-08T01:56:47;18.50;61.20
21348;DHT22;66030;53.582;9.746;2024-03-08T01:59:16;18.50;61.20
21348;DHT22;66030;53.582;9.746;2024-03-08T02:01:45;18.50;61.30
21348;DHT22;66030;53.582;9.746;2024-03-08T02:04:14;18.40;61.40
21348;DHT22;66030;53.582;9.746;2024-03-08T02:06:43;18.40;61.30
21348;DHT22;66030;53.582;9.746;2024-03-08T02:09:11;18.40;61.30
21348;DHT22;66030;53.582;9.746;2024-03-08T02:11:40;18.40;61.30
21348;DHT22;66030;53.582;9.746;2024-03-08T02:14:09;18.50;61.30
21348;DHT22;66030;53.582;9.746;2024-03-08T02:16:38;18.40;61.30
21348;DHT22;66030;53.582;9.746;2024-03-08T02:19:07;18.50;61.20
21348;DHT22;66030;53.582;9.746;2024-03-08T02:21:37;18.50;61.20
21348;DHT22;66030;53.582;9.746;2024-03-08T02:24:06;18.40;61.30
21348;DHT22;66030;53.582;9.746;2024-03-08T02:26:34;18.40;61.20
21348;DHT22;66030;53.582;9.746;2024-03-08T02:29:02;18.40;61.20
21348;DHT22;66030;53.582;9.746;2024-03-08T02:31:30;18.40;61.10
21348;DHT22;66030;53.582;9.746;2024-03-08T02:33:58;18.40;61.10
21348;DHT22;66030;53.582;9.746;2024-03-08T02:36:26;18.40;61.30
21348;DHT22;66030;53.582;9.746;2024-03-08T02:38:55;18.40;61.30
21348;DHT22;66030;53.582;9.746;2024-03-08T02:41:23;18.40;61.30
21348;DHT22;66030;53.582;9.746;2024-03-08T02:43:51;18.40;61.40
21348;DHT22;66030;53.582;9.746;2024-03-08T02:46:19;18.30;61.40
21348;DHT22;66030;53.582;9.746;2024-03-08T02:48:47;18.30;61.30
21348;DHT22;66030;53.582;9.746;2024-03-08T02:51:15;18.30;61.40
21348;DHT22;66030;53.582;9.746;2024-03-08T02:53:43;18.30;61.40
21348;DHT22;66030;53.582;9.746;2024-03-08T02:56:13;18.30;61.40
21348;DHT22;66030;53.582;9.746;2024-03-08T02:58:43;18.30;61.30
21348;DHT22;66030;53.582;9.746;2024-03-08T03:01:15;18.30;61.30
21348;DHT22;66030;53.582;9.746;2024-03-08T03:03:43;18.30;61.20
21348;DHT22;66030;53.582;9.746;2024-03-08T03:06:11;18.30;61.20
21348;DHT22;66030;53.582;9.746;2024-03-08T03:08:38;18.30;61.10
21348;DHT22;66030;53.582;9.746;2024-03-08T03:11:10;18.30;61.10
21348;DHT22;66030;53.582;9.746;2024-03-08T03:13:41;18.30;61.10
21348;DHT22;66030;53.582;9.746;2024-03-08T03:16:17;18.30;61.10
21348;DHT22;66030;53.582;9.746;2024-03-08T03:18:46;18.30;61.20
21348;DHT22;66030;53.582;9.746;2024-03-08T03:21:14;18.30;61.20
21348;DHT22;66030;53.582;9.746;2024-03-08T03:23:43;18.30;61.20
21348;DHT22;66030;53.582;9.746;2024-03-08T03:26:11;18.20;61.20
21348;DHT22;66030;53.582;9.746;2024-03-08T03:28:41;18.30;61.20
21348;DHT22;66030;53.582;9.746;2024-03-08T03:31:09;18.20;61.20
21348;DHT22;66030;53.582;9.746;2024-03-08T03:33:40;18.30;61.10
21348;DHT22;66030;53.582;9.746;2024-03-08T03:36:08;18.20;61.10
21348;DHT22;66030;53.582;9.746;2024-03-08T03:38:37;18.20;61.20
21348;DHT22;66030;53.582;9.746;2024-03-08T03:41:05;18.20;61.10
21348;DHT22;66030;53.582;9.746;2024-03-08T03:43:37;18.20;61.10
21348;DHT22;66030;53.582;9.746;2024-03-08T03:46:07;18.30;61.10
21348;DHT22;66030;53.582;9.746;2024-03-08T03:48:37;18.20;61.10
21348;DHT22;66030;53.582;9.746;2024-03-08T03:51:05;18.20;61.10
21348;DHT22;66030;53.582;9.746;2024-03-08T03:53:34;18.20;61.00
21348;DHT22;66030;53.582;9.746;2024-03-08T03:56:02;18.20;61.10
21348;DHT22;66030;53.582;9.746;2024-03-08T03:58:33;18.20;61.00
21348;DHT22;66030;53.582;9.746;2024-03-08T04:01:01;18.20;61.10
21348;DHT22;66030;53.582;9.746;2024-03-08T04:03:30;18.20;61.00
21348;DHT22;66030;53.582;9.746;2024-03-08T04:05:58;18.20;61.10
21348;DHT22;66030;53.582;9.746;2024-03-08T04:08:26;18.20;61.10
21348;DHT22;66030;53.582;9.746;2024-03-08T04:10:53;18.20;61.20
21348;DHT22;66030;53.582;9.746;2024-03-08T04:13:21;18.10;61.10
21348;DHT22;66030;53.582;9.746;2024-03-08T04:15:49;18.10;61.20
21348;DHT22;66030;53.582;9.746;2024-03-08T04:18:17;18.10;61.10
21348;DHT22;66030;53.582;9.746;2024-03-08T04:20:47;18.10;61.20
21348;DHT22;66030;53.582;9.746;2024-03-08T04:23:15;18.10;61.20
21348;DHT22;66030;53.582;9.746;2024-03-08T04:25:44;18.10;61.30
21348;DHT22;66030;53.582;9.746;2024-03-08T04:28:12;18.10;61.20
21348;DHT22;66030;53.582;9.746;2024-03-08T04:30:39;18.10;61.20
21348;DHT22;66030;53.582;9.746;2024-03-08T04:33:07;18.10;61.20
21348;DHT22;66030;53.582;9.746;2024-03-08T04:35:36;18.10;61.20
21348;DHT22;66030;53.582;9.746;2024-03-08T04:38:05;18.10;61.10
21348;DHT22;66030;53.582;9.746;2024-03-08T04:40:33;18.10;61.00
21348;DHT22;66030;53.582;9.746;2024-03-08T04:43:01;18.20;60.80
21348;DHT22;66030;53.582;9.746;2024-03-08T04:45:29;18.20;60.60
21348;DHT22;66030;53.582;9.746;2024-03-08T04:47:57;18.30;60.50
21348;DHT22;66030;53.582;9.746;2024-03-08T04:50:25;18.40;60.40
21348;DHT22;66030;53.582;9.746;2024-03-08T04:52:55;18.40;60.20
21348;DHT22;66030;53.582;9.746;2024-03-08T04:55:25;18.50;60.10
21348;DHT22;66030;53.582;9.746;2024-03-08T04:57:53;18.50;59.90
21348;DHT22;66030;53.582;9.746;2024-03-08T05:00:20;18.60;59.90
21348;DHT22;66030;53.582;9.746;2024-03-08T05:02:48;18.60;59.80
21348;DHT22;66030;53.582;9.746;2024-03-08T05:05:20;18.70;59.60
21348;DHT22;66030;53.582;9.746;2024-03-08T05:07:49;18.70;59.50
21348;DHT22;66030;53.582;9.746;2024-03-08T05:10:17;18.80;59.50
21348;DHT22;66030;53.582;9.746;2024-03-08T05:12:46;18.80;59.40
21348;DHT22;66030;53.582;9.746;2024-03-08T05:15:14;18.90;59.30
21348;DHT22;66030;53.582;9.746;2024-03-08T05:17:42;18.90;59.20
21348;DHT22;66030;53.582;9.746;2024-03-08T05:20:10;18.90;59.10
21348;DHT22;66030;53.582;9.746;2024-03-08T05:22:40;18.90;59.10
21348;DHT22;66030;53.582;9.746;2024-03-08T05:25:08;19.00;58.90
21348;DHT22;66030;53.582;9.746;2024-03-08T05:27:37;19.00;58.90
21348;DHT22;66030;53.582;9.746;2024-03-08T05:30:07;19.00;58.80
21348;DHT22;66030;53.582;9.746;2024-03-08T05:32:41;19.10;58.70
21348;DHT22;66030;53.582;9.746;2024-03-08T05:35:11;19.10;58.70
21348;DHT22;66030;53.582;9.746;2024-03-08T05:37:39;19.10;58.60
21348;DHT22;66030;53.582;9.746;2024-03-08T05:40:07;19.10;58.50
21348;DHT22;66030;53.582;9.746;2024-03-08T05:42:41;19.20;58.50
21348;DHT22;66030;53.582;9.746;2024-03-08T05:45:11;19.20;58.40
21348;DHT22;66030;53.582;9.746;2024-03-08T05:47:39;19.20;58.40
21348;DHT22;66030;53.582;9.746;2024-03-08T05:50:07;19.30;58.40
21348;DHT22;66030;53.582;9.746;2024-03-08T05:52:37;19.30;58.30
21348;DHT22;66030;53.582;9.746;2024-03-08T05:55:06;19.30;58.20
21348;DHT22;66030;53.582;9.746;2024-03-08T05:57:34;19.30;58.20
21348;DHT22;66030;53.582;9.746;2024-03-08T06:00:05;19.30;58.20
21348;DHT22;66030;53.582;9.746;2024-03-08T06:02:35;19.30;58.10
21348;DHT22;66030;53.582;9.746;2024-03-08T06:05:09;19.20;58.20
21348;DHT22;66030;53.582;9.746;2024-03-08T06:07:37;19.20;58.20
21348;DHT22;66030;53.582;9.746;2024-03-08T06:10:08;19.20;58.30
21348;DHT22;66030;53.582;9.746;2024-03-08T06:12:39;19.20;58.50
21348;DHT22;66030;53.582;9.746;2024-03-08T06:15:08;19.20;58.50
21348;DHT22;66030;53.582;9.746;2024-03-08T06:17:38;19.20;58.60
21348;DHT22;66030;53.582;9.746;2024-03-08T06:20:07;19.20;58.60
21348;DHT22;66030;53.582;9.746;2024-03-08T06:22:40;19.20;58.70
21348;DHT22;66030;53.582;9.746;2024-03-08T06:25:08;19.20;58.70
21348;DHT22;66030;53.582;9.746;2024-03-08T06:27:38;19.20;58.70
21348;DHT22;66030;53.582;9.746;2024-03-08T06:30:07;19.20;58.70
21348;DHT22;66030;53.582;9.746;2024-03-08T06:32:37;19.20;59.00
21348;DHT22;66030;53.582;9.746;2024-03-08T06:35:06;19.20;58.90
21348;DHT22;66030;53.582;9.746;2024-03-08T06:37:35;19.20;58.60
21348;DHT22;66030;53.582;9.746;2024-03-08T06:40:03;19.10;58.80
21348;DHT22;66030;53.582;9.746;2024-03-08T06:42:31;19.20;58.80
21348;DHT22;66030;53.582;9.746;2024-03-08T06:45:01;19.20;58.90
21348;DHT22;66030;53.582;9.746;2024-03-08T06:47:32;19.20;59.40
21348;DHT22;66030;53.582;9.746;2024-03-08T06:50:01;19.10;58.70
21348;DHT22;66030;53.582;9.746;2024-03-08T06:52:30;19.10;59.20
21348;DHT22;66030;53.582;9.746;2024-03-08T06:54:58;19.10;59.40
21348;DHT22;66030;53.582;9.746;2024-03-08T06:57:28;19.10;60.10
21348;DHT22;66030;53.582;9.746;2024-03-08T06:59:56;18.80;56.30
21348;DHT22;66030;53.582;9.746;2024-03-08T07:02:24;18.70;59.60
21348;DHT22;66030;53.582;9.746;2024-03-08T07:04:52;18.80;60.10
21348;DHT22;66030;53.582;9.746;2024-03-08T07:07:22;18.90;60.40
21348;DHT22;66030;53.582;9.746;2024-03-08T07:09:50;19.00;60.40
21348;DHT22;66030;53.582;9.746;2024-03-08T07:12:17;19.00;60.00
21348;DHT22;66030;53.582;9.746;2024-03-08T07:14:47;19.10;59.90
21348;DHT22;66030;53.582;9.746;2024-03-08T07:17:15;19.10;59.80
21348;DHT22;66030;53.582;9.746;2024-03-08T07:19:43;19.10;59.60
21348;DHT22;66030;53.582;9.746;2024-03-08T07:22:11;19.20;59.50
21348;DHT22;66030;53.582;9.746;2024-03-08T07:24:40;19.20;59.60
21348;DHT22;66030;53.582;9.746;2024-03-08T07:27:22;19.20;59.80
21348;DHT22;66030;53.582;9.746;2024-03-08T07:29:50;19.20;60.00
21348;DHT22;66030;53.582;9.746;2024-03-08T07:32:34;19.30;60.10
21348;DHT22;66030;53.582;9.746;2024-03-08T07:35:02;19.30;59.90
21348;DHT22;66030;53.582;9.746;2024-03-08T07:37:30;19.30;59.90
21348;DHT22;66030;53.582;9.746;2024-03-08T07:39:59;19.30;59.90
21348;DHT22;66030;53.582;9.746;2024-03-08T07:42:27;19.30;60.00
21348;DHT22;66030;53.582;9.746;2024-03-08T07:44:55;19.30;60.10
21348;DHT22;66030;53.582;9.746;2024-03-08T07:47:23;19.30;59.90
21348;DHT22;66030;53.582;9.746;2024-03-08T07:49:53;19.40;59.90
21348;DHT22;66030;53.582;9.746;2024-03-08T07:52:20;19.40;59.90
21348;DHT22;66030;53.582;9.746;2024-03-08T07:54:48;19.40;59.80
21348;DHT22;66030;53.582;9.746;2024-03-08T07:57:17;19.40;59.70
21348;DHT22;66030;53.582;9.746;2024-03-08T07:59:45;19.40;59.70
21348;DHT22;66030;53.582;9.746;2024-03-08T08:02:13;19.50;59.70
21348;DHT22;66030;53.582;9.746;2024-03-08T08:04:41;19.50;59.60
21348;DHT22;66030;53.582;9.746;2024-03-08T08:07:11;19.50;59.50
21348;DHT22;66030;53.582;9.746;2024-03-08T08:09:39;19.50;59.40
21348;DHT22;66030;53.582;9.746;2024-03-08T08:12:07;19.60;59.40
21348;DHT22;66030;53.582;9.746;2024-03-08T08:14:39;19.60;59.30
21348;DHT22;66030;53.582;9.746;2024-03-08T08:17:07;19.60;59.30
21348;DHT22;66030;53.582;9.746;2024-03-08T08:19:36;19.60;59.10
21348;DHT22;66030;53.582;9.746;2024-03-08T08:22:05;19.70;59.10
21348;DHT22;66030;53.582;9.746;2024-03-08T08:24:35;19.70;59.00
21348;DHT22;66030;53.582;9.746;2024-03-08T08:27:04;19.70;58.90
21348;DHT22;66030;53.582;9.746;2024-03-08T08:29:32;19.70;58.80
21348;DHT22;66030;53.582;9.746;2024-03-08T08:32:01;19.80;58.80
21348;DHT22;66030;53.582;9.746;2024-03-08T08:34:29;19.80;58.60
21348;DHT22;66030;53.582;9.746;2024-03-08T08:36:56;19.80;58.60
21348;DHT22;66030;53.582;9.746;2024-03-08T08:39:24;19.80;58.50
21348;DHT22;66030;53.582;9.746;2024-03-08T08:41:52;19.80;58.50
21348;DHT22;66030;53.582;9.746;2024-03-08T08:44:22;19.80;58.40
21348;DHT22;66030;53.582;9.746;2024-03-08T08:46:49;19.80;58.40
21348;DHT22;66030;53.582;9.746;2024-03-08T08:49:24;19.90;58.30
21348;DHT22;66030;53.582;9.746;2024-03-08T08:51:53;19.90;58.20
21348;DHT22;66030;53.582;9.746;2024-03-08T08:54:24;19.90;58.20
21348;DHT22;66030;53.582;9.746;2024-03-08T08:56:54;20.00;58.10
21348;DHT22;66030;53.582;9.746;2024-03-08T08:59:21;20.00;58.00
21348;DHT22;66030;53.582;9.746;2024-03-08T09:01:51;20.00;57.90
21348;DHT22;66030;53.582;9.746;2024-03-08T09:04:20;20.10;57.70
21348;DHT22;66030;53.582;9.746;2024-03-08T09:06:51;20.10;57.80
21348;DHT22;66030;53.582;9.746;2024-03-08T09:09:18;20.10;57.70
21348;DHT22;66030;53.582;9.746;2024-03-08T09:11:48;20.10;57.60
21348;DHT22;66030;53.582;9.746;2024-03-08T09:14:16;20.20;57.60
21348;DHT22;66030;53.582;9.746;2024-03-08T09:16:44;20.20;57.50
21348;DHT22;66030;53.582;9.746;2024-03-08T09:19:14;20.20;57.50
21348;DHT22;66030;53.582;9.746;2024-03-08T09:21:42;20.30;57.40
21348;DHT22;66030;53.582;9.746;2024-03-08T09:24:11;20.30;57.30
21348;DHT22;66030;53.582;9.746;2024-03-08T09:26:39;20.30;57.20
21348;DHT22;66030;53.582;9.746;2024-03-08T09:29:08;20.30;57.20
21348;DHT22;66030;53.582;9.746;2024-03-08T09:31:37;20.40;57.10
21348;DHT22;66030;53.582;9.746;2024-03-08T09:34:06;20.40;57.00
21348;DHT22;66030;53.582;9.746;2024-03-08T09:36:36;20.40;57.00
21348;DHT22;66030;53.582;9.746;2024-03-08T09:39:04;20.40;57.00
21348;DHT22;66030;53.582;9.746;2024-03-08T09:41:35;20.50;56.80
21348;DHT22;66030;53.582;9.746;2024-03-08T09:44:04;20.50;56.60
21348;DHT22;66030;53.582;9.746;2024-03-08T09:46:31;20.40;56.30
21348;DHT22;66030;53.582;9.746;2024-03-08T09:48:59;20.50;56.20
21348;DHT22;66030;53.582;9.746;2024-03-08T09:51:28;20.50;56.20
21348;DHT22;66030;53.582;9.746;2024-03-08T09:53:57;20.50;56.20
21348;DHT22;66030;53.582;9.746;2024-03-08T09:56:27;20.60;56.10
21348;DHT22;66030;53.582;9.746;2024-03-08T09:58:56;20.60;55.90
21348;DHT22;66030;53.582;9.746;2024-03-08T10:01:47;20.60;56.00
21348;DHT22;66030;53.582;9.746;2024-03-08T10:04:15;20.70;55.90
21348;DHT22;66030;53.582;9.746;2024-03-08T10:06:44;20.80;55.60
21348;DHT22;66030;53.582;9.746;2024-03-08T10:09:13;20.80;55.70
21348;DHT22;66030;53.582;9.746;2024-03-08T10:11:42;20.80;55.60
21348;DHT22;66030;53.582;9.746;2024-03-08T10:14:11;20.80;55.50
21348;DHT22;66030;53.582;9.746;2024-03-08T10:16:39;20.90;55.40
21348;DHT22;66030;53.582;9.746;2024-03-08T10:19:07;20.90;55.40
21348;DHT22;66030;53.582;9.746;2024-03-08T10:21:36;20.90;55.50
21348;DHT22;66030;53.582;9.746;2024-03-08T10:24:14;21.00;55.60
21348;DHT22;66030;53.582;9.746;2024-03-08T10:26:42;21.00;55.50
21348;DHT22;66030;53.582;9.746;2024-03-08T10:29:13;21.10;55.60
21348;DHT22;66030;53.582;9.746;2024-03-08T10:31:43;21.10;55.60
21348;DHT22;66030;53.582;9.746;2024-03-08T10:34:11;21.20;55.70
21348;DHT22;66030;53.582;9.746;2024-03-08T10:36:39;21.20;56.00
21348;DHT22;66030;53.582;9.746;2024-03-08T10:39:14;21.30;56.40
21348;DHT22;66030;53.582;9.746;2024-03-08T10:41:52;21.30;56.50
21348;DHT22;66030;53.582;9.746;2024-03-08T10:44:31;21.40;56.30
21348;DHT22;66030;53.582;9.746;2024-03-08T10:47:03;21.40;56.40
21348;DHT22;66030;53.582;9.746;2024-03-08T10:49:38;21.40;56.40
21348;DHT22;66030;53.582;9.746;2024-03-08T10:52:06;21.50;56.50
21348;DHT22;66030;53.582;9.746;2024-03-08T10:54:37;21.50;56.40
21348;DHT22;66030;53.582;9.746;2024-03-08T10:57:12;21.50;56.40
21348;DHT22;66030;53.582;9.746;2024-03-08T10:59:43;21.50;56.40
21348;DHT22;66030;53.582;9.746;2024-03-08T11:02:12;21.60;56.40
21348;DHT22;66030;53.582;9.746;2024-03-08T11:04:45;21.60;56.30
21348;DHT22;66030;53.582;9.746;2024-03-08T11:07:13;21.60;56.30
21348;DHT22;66030;53.582;9.746;2024-03-08T11:09:44;21.60;56.30
21348;DHT22;66030;53.582;9.746;2024-03-08T11:12:19;21.70;56.40
21348;DHT22;66030;53.582;9.746;2024-03-08T11:14:50;21.70;56.30
21348;DHT22;66030;53.582;9.746;2024-03-08T11:17:21;21.70;56.30
21348;DHT22;66030;53.582;9.746;2024-03-08T11:19:49;21.70;56.40
21348;DHT22;66030;53.582;9.746;2024-03-08T11:22:23;21.70;56.40
21348;DHT22;66030;53.582;9.746;2024-03-08T11:24:58;21.70;56.40
21348;DHT22;66030;53.582;9.746;2024-03-08T11:27:29;21.70;56.30
21348;DHT22;66030;53.582;9.746;2024-03-08T11:30:03;21.70;56.40
21348;DHT22;66030;53.582;9.746;2024-03-08T11:32:44;21.80;56.30
21348;DHT22;66030;53.582;9.746;2024-03-08T11:35:18;21.80;56.30
21348;DHT22;66030;53.582;9.746;2024-03-08T11:37:46;21.80;56.30
21348;DHT22;66030;53.582;9.746;2024-03-08T11:40:15;21.80;56.20
21348;DHT22;66030;53.582;9.746;2024-03-08T11:42:45;21.80;56.10
21348;DHT22;66030;53.582;9.746;2024-03-08T11:45:16;21.90;56.10
21348;DHT22;66030;53.582;9.746;2024-03-08T11:47:45;21.90;56.10
21348;DHT22;66030;53.582;9.746;2024-03-08T11:50:13;21.90;56.10
21348;DHT22;66030;53.582;9.746;2024-03-08T11:52:44;21.90;56.10
21348;DHT22;66030;53.582;9.746;2024-03-08T11:55:12;21.90;56.10
21348;DHT22;66030;53.582;9.746;2024-03-08T11:57:40;21.90;56.00
21348;DHT22;66030;53.582;9.746;2024-03-08T12:00:18;21.90;56.10
21348;DHT22;66030;53.582;9.746;2024-03-08T12:03:02;21.90;56.10
21348;DHT22;66030;53.582;9.746;2024-03-08T12:05:31;21.90;56.00
21348;DHT22;66030;53.582;9.746;2024-03-08T12:08:00;22.00;55.80
21348;DHT22;66030;53.582;9.746;2024-03-08T12:10:29;22.00;55.90
21348;DHT22;66030;53.582;9.746;2024-03-08T12:12:58;22.00;55.90
21348;DHT22;66030;53.582;9.746;2024-03-08T12:15:28;22.00;56.00
21348;DHT22;66030;53.582;9.746;2024-03-08T12:17:59;22.00;55.90
21348;DHT22;66030;53.582;9.746;2024-03-08T12:20:29;22.00;55.90
21348;DHT22;66030;53.582;9.746;2024-03-08T12:22:58;22.00;55.80
21348;DHT22;66030;53.582;9.746;2024-03-08T12:25:27;22.00;55.80
21348;DHT22;66030;53.582;9.746;2024-03-08T12:28:07;22.00;55.70
21348;DHT22;66030;53.582;9.746;2024-03-08T12:30:46;22.00;55.80
21348;DHT22;66030;53.582;9.746;2024-03-08T12:33:14;22.00;55.60
21348;DHT22;66030;53.582;9.746;2024-03-08T12:35:51;22.00;55.60
21348;DHT22;66030;53.582;9.746;2024-03-08T12:38:22;22.00;55.50
21348;DHT22;66030;53.582;9.746;2024-03-08T12:40:55;22.00;55.10
21348;DHT22;66030;53.582;9.746;2024-03-08T12:43:25;21.90;54.70
21348;DHT22;66030;53.582;9.746;2024-03-08T12:45:54;21.80;54.50
21348;DHT22;66030;53.582;9.746;2024-03-08T12:48:22;21.90;54.50
21348;DHT22;66030;53.582;9.746;2024-03-08T12:50:49;21.80;54.30
21348;DHT22;66030;53.582;9.746;2024-03-08T12:53:18;21.80;54.20
21348;DHT22;66030;53.582;9.746;2024-03-08T12:55:46;21.80;54.20
21348;DHT22;66030;53.582;9.746;2024-03-08T12:58:14;21.90;54.60
21348;DHT22;66030;53.582;9.746;2024-03-08T13:00:43;21.90;54.50
21348;DHT22;66030;53.582;9.746;2024-03-08T13:03:13;21.90;54.40
21348;DHT22;66030;53.582;9.746;2024-03-08T13:05:41;21.90;54.30
21348;DHT22;66030;53.582;9.746;2024-03-08T13:08:09;21.90;54.30
21348;DHT22;66030;53.582;9.746;2024-03-08T13:10:40;22.00;54.40
21348;DHT22;66030;53.582;9.746;2024-03-08T13:13:10;21.90;54.40
21348;DHT22;66030;53.582;9.746;2024-03-08T13:15:40;22.00;54.40
21348;DHT22;66030;53.582;9.746;2024-03-08T13:18:09;21.90;54.50
21348;DHT22;66030;53.582;9.746;2024-03-08T13:20:39;21.90;54.30
21348;DHT22;66030;53.582;9.746;2024-03-08T13:23:14;21.90;54.20
21348;DHT22;66030;53.582;9.746;2024-03-08T13:25:41;21.90;54.30
21348;DHT22;66030;53.582;9.746;2024-03-08T13:28:10;21.90;52.50
21348;DHT22;66030;53.582;9.746;2024-03-08T13:30:37;21.30;46.30
21348;DHT22;66030;53.582;9.746;2024-03-08T13:33:05;21.10;52.30
21348;DHT22;66030;53.582;9.746;2024-03-08T13:35:34;21.20;52.60
21348;DHT22;66030;53.582;9.746;2024-03-08T13:38:05;21.40;52.60
21348;DHT22;66030;53.582;9.746;2024-03-08T13:40:36;21.40;52.40
21348;DHT22;66030;53.582;9.746;2024-03-08T13:43:04;21.50;52.20
21348;DHT22;66030;53.582;9.746;2024-03-08T13:45:32;21.60;52.20
21348;DHT22;66030;53.582;9.746;2024-03-08T13:48:00;21.70;52.20
21348;DHT22;66030;53.582;9.746;2024-03-08T13:50:28;21.70;52.10
21348;DHT22;66030;53.582;9.746;2024-03-08T13:52:57;21.70;52.20
21348;DHT22;66030;53.582;9.746;2024-03-08T13:55:28;21.70;52.30
21348;DHT22;66030;53.582;9.746;2024-03-08T13:57:58;21.80;52.30
21348;DHT22;66030;53.582;9.746;2024-03-08T14:00:28;21.70;50.50
21348;DHT22;66030;53.582;9.746;2024-03-08T14:03:03;21.50;50.50
21348;DHT22;66030;53.582;9.746;2024-03-08T14:05:33;21.40;51.60
21348;DHT22;66030;53.582;9.746;2024-03-08T14:08:02;21.50;51.90
21348;DHT22;66030;53.582;9.746;2024-03-08T14:10:33;21.50;51.70
21348;DHT22;66030;53.582;9.746;2024-03-08T14:13:05;21.50;51.80
21348;DHT22;66030;53.582;9.746;2024-03-08T14:15:34;21.50;51.90
21348;DHT22;66030;53.582;9.746;2024-03-08T14:18:04;21.60;51.90
21348;DHT22;66030;53.582;9.746;2024-03-08T14:20:34;21.60;51.90
21348;DHT22;66030;53.582;9.746;2024-03-08T14:23:04;21.60;52.10
21348;DHT22;66030;53.582;9.746;2024-03-08T14:25:35;21.60;52.00
21348;DHT22;66030;53.582;9.746;2024-03-08T14:28:05;21.60;52.10
21348;DHT22;66030;53.582;9.746;2024-03-08T14:30:35;21.60;52.20
21348;DHT22;66030;53.582;9.746;2024-03-08T14:33:08;21.60;52.30
21348;DHT22;66030;53.582;9.746;2024-03-08T14:35:39;21.60;52.30
21348;DHT22;66030;53.582;9.746;2024-03-08T14:38:09;21.60;52.40
21348;DHT22;66030;53.582;9.746;2024-03-08T14:40:40;21.60;52.60
21348;DHT22;66030;53.582;9.746;2024-03-08T14:43:13;21.60;52.80
21348;DHT22;66030;53.582;9.746;2024-03-08T14:45:48;21.60;52.80
21348;DHT22;66030;53.582;9.746;2024-03-08T14:48:19;21.60;52.70
21348;DHT22;66030;53.582;9.746;2024-03-08T14:50:50;21.60;52.70
21348;DHT22;66030;53.582;9.746;2024-03-08T14:53:21;21.60;52.70
21348;DHT22;66030;53.582;9.746;2024-03-08T14:55:51;21.60;52.80
21348;DHT22;66030;53.582;9.746;2024-03-08T14:58:23;21.60;52.80
21348;DHT22;66030;53.582;9.746;2024-03-08T15:00:52;21.60;53.00
21348;DHT22;66030;53.582;9.746;2024-03-08T15:03:23;21.60;52.60
21348;DHT22;66030;53.582;9.746;2024-03-08T15:05:53;21.50;52.70
21348;DHT22;66030;53.582;9.746;2024-03-08T15:08:23;21.50;52.50
21348;DHT22;66030;53.582;9.746;2024-03-08T15:10:54;21.60;52.60
21348;DHT22;66030;53.582;9.746;2024-03-08T15:13:26;21.60;52.70
21348;DHT22;66030;53.582;9.746;2024-03-08T15:16:04;21.60;52.60
21348;DHT22;66030;53.582;9.746;2024-03-08T15:18:34;21.50;52.60
21348;DHT22;66030;53.582;9.746;2024-03-08T15:21:06;21.50;52.70
21348;DHT22;66030;53.582;9.746;2024-03-08T15:23:35;21.50;52.70
21348;DHT22;66030;53.582;9.746;2024-03-08T15:26:07;21.50;52.70
21348;DHT22;66030;53.582;9.746;2024-03-08T15:28:36;21.50;52.70
21348;DHT22;66030;53.582;9.746;2024-03-08T15:31:06;21.50;52.80
21348;DHT22;66030;53.582;9.746;2024-03-08T15:33:40;21.40;52.80
21348;DHT22;66030;53.582;9.746;2024-03-08T15:36:12;21.40;52.80
21348;DHT22;66030;53.582;9.746;2024-03-08T15:38:43;21.40;52.90
21348;DHT22;66030;53.582;9.746;2024-03-08T15:41:20;21.40;53.00
21348;DHT22;66030;53.582;9.746;2024-03-08T15:43:49;21.40;53.10